Time;durP1;ratioP1;P1;durP2;ratioP2;P2;SDS_P1;SDS_P2;PMS_P1;PMS_P2;Temp;Humidity;BMP_temperature;BMP_pressure;BME280_temperature;BME280_humidity;BME280_pressure;Samples;Min_cycle;Max_cycle;Signal;HPM_P1;HPM_P2
2022/01/05 00:02:15;;;;;;;;;11.20;10.40;;;;;12.70;48.86;98450.16;4994141;28;8885;-77
2022/01/05 00:04:44;;;;;;;;;7.60;4.60;;;;;12.74;48.70;98451.81;5010489;28;8884;-77
2022/01/05 00:07:12;;;;;;;;;9.80;9.40;;;;;12.71;48.70;98448.44;5010092;28;8846;-76
2022/01/05 00:09:43;;;;;;;;;10.80;10.80;;;;;12.75;48.90;98450.06;4974088;28;9083;-77
2022/01/05 00:12:12;;;;;;;;;11.20;11.20;;;;;12.74;48.07;98441.38;4974147;28;8868;-76
2022/01/05 00:14:41;;;;;;;;;9.80;8.80;;;;;12.77;48.53;98446.50;4990073;28;9010;-77
2022/01/05 00:17:09;;;;;;;;;10.00;9.20;;;;;12.85;48.53;98451.50;4973827;28;8872;-80
2022/01/05 00:19:39;;;;;;;;;13.80;11.80;;;;;12.83;48.35;98448.09;4973731;28;9003;-77
2022/01/05 00:22:08;;;;;;;;;10.00;10.00;;;;;12.91;47.78;98453.09;4989965;28;9595;-79
2022/01/05 00:24:37;;;;;;;;;11.80;11.80;;;;;12.75;48.55;98456.16;4973817;28;8919;-78
2022/01/05 00:27:07;;;;;;;;;9.60;9.40;;;;;12.73;48.25;98449.25;4993037;28;8938;-80
2022/01/05 00:29:36;;;;;;;;;11.20;10.40;;;;;12.81;47.73;98444.66;5032169;28;8870;-78
2022/01/05 00:32:06;;;;;;;;;11.60;11.60;;;;;12.86;47.51;98437.56;5032818;28;8850;-76
2022/01/05 00:34:35;;;;;;;;;13.20;11.80;;;;;12.82;47.80;98441.16;5016281;28;8878;-78
2022/01/05 00:37:04;;;;;;;;;12.40;12.40;;;;;12.85;48.43;98446.28;5032220;28;8854;-75
2022/01/05 00:39:33;;;;;;;;;13.40;12.00;;;;;12.86;47.81;98450.63;5065868;28;8850;-77
2022/01/05 00:42:02;;;;;;;;;12.20;10.60;;;;;12.91;47.53;98445.25;5013061;28;9744;-78
2022/01/05 00:44:31;;;;;;;;;13.60;12.40;;;;;12.78;47.86;98448.22;4979824;28;8860;-76
2022/01/05 00:47:00;;;;;;;;;17.00;14.00;;;;;12.63;48.65;98454.72;4989095;28;8869;-78
2022/01/05 00:49:29;;;;;;;;;10.20;9.80;;;;;12.67;49.07;98452.88;4973372;28;8864;-77
2022/01/05 00:51:57;;;;;;;;;10.60;9.60;;;;;12.63;48.59;98469.56;4957093;28;9688;-79
2022/01/05 00:54:28;;;;;;;;;13.20;10.20;;;;;12.48;48.76;98468.19;5008416;28;8970;-75
2022/01/05 00:56:57;;;;;;;;;8.20;8.00;;;;;12.45;48.94;98463.03;4992376;28;8846;-77
2022/01/05 00:59:26;;;;;;;;;7.80;7.80;;;;;12.43;48.86;98465.69;4992882;28;8863;-79
2022/01/05 01:01:56;;;;;;;;;8.20;6.80;;;;;12.40;48.54;98462.28;5008893;28;8858;-79
2022/01/05 01:04:26;;;;;;;;;8.80;7.80;;;;;12.40;49.04;98464.91;4992550;28;8867;-81
2022/01/05 01:06:54;;;;;;;;;6.40;6.40;;;;;12.42;49.01;98469.22;5008592;28;8951;-80
2022/01/05 01:09:23;;;;;;;;;7.40;7.40;;;;;12.44;48.60;98467.41;4976173;28;8854;-79
2022/01/05 01:11:51;;;;;;;;;9.40;9.40;;;;;12.51;48.08;98467.25;4992285;28;8855;-79
2022/01/05 01:14:20;;;;;;;;;10.40;10.00;;;;;12.56;47.94;98468.00;4976317;28;8889;-79
2022/01/05 01:16:49;;;;;;;;;9.80;9.00;;;;;12.45;48.31;98463.88;4976169;28;8878;-77
2022/01/05 01:19:19;;;;;;;;;10.60;10.60;;;;;12.54;48.28;98454.09;5046808;28;8938;-77
2022/01/05 01:21:48;;;;;;;;;11.80;9.60;;;;;12.57;47.70;98465.34;5067787;28;8863;-77
2022/01/05 01:24:17;;;;;;;;;9.40;7.20;;;;;12.67;48.31;98466.81;5051409;28;8844;-78
2022/01/05 01:26:45;;;;;;;;;9.40;9.40;;;;;12.75;47.46;98455.28;5051500;28;9038;-80
2022/01/05 01:29:14;;;;;;;;;9.20;9.00;;;;;12.86;47.03;98454.09;5068072;28;9000;-78
2022/01/05 01:31:43;;;;;;;;;5.60;5.60;;;;;12.82;46.92;98442.00;5031327;28;8836;-77
2022/01/05 01:34:11;;;;;;;;;9.80;9.40;;;;;12.85;47.12;98443.66;5031484;28;8919;-75
2022/01/05 01:36:41;;;;;;;;;11.20;8.00;;;;;12.84;47.61;98445.44;5031092;28;9574;-77
2022/01/05 01:39:10;;;;;;;;;9.00;9.00;;;;;12.82;47.56;98439.38;5031441;28;8851;-77
2022/01/05 01:41:38;;;;;;;;;7.80;7.80;;;;;12.84;47.56;98442.81;5031438;28;8863;-77
2022/01/05 01:44:07;;;;;;;;;8.00;8.00;;;;;12.83;46.66;98440.25;5047838;28;8887;-80
2022/01/05 01:46:36;;;;;;;;;9.00;8.80;;;;;12.81;47.98;98429.81;5031350;28;8874;-79
2022/01/05 01:49:05;;;;;;;;;8.20;7.80;;;;;12.94;46.85;98421.63;5014710;28;8948;-82
2022/01/05 01:51:33;;;;;;;;;10.80;9.60;;;;;12.84;46.90;98426.28;5031176;28;8966;-77
2022/01/05 01:54:04;;;;;;;;;6.60;5.00;;;;;12.79;47.28;98430.75;5047782;28;8846;-78
2022/01/05 01:56:35;;;;;;;;;8.20;7.80;;;;;12.83;46.67;98419.31;5030552;28;8931;-79
2022/01/05 01:59:04;;;;;;;;;9.60;8.20;;;;;12.66;47.42;98419.78;4962993;28;8841;-78
2022/01/05 02:01:33;;;;;;;;;7.40;7.40;;;;;12.66;47.32;98419.78;4988925;28;8864;-79
2022/01/05 02:04:02;;;;;;;;;7.00;6.80;;;;;12.51;48.03;98420.19;4974155;28;8863;-79
2022/01/05 02:06:31;;;;;;;;;9.00;9.00;;;;;12.51;48.33;98415.81;4992066;28;8863;-81
2022/01/05 02:09:00;;;;;;;;;7.60;7.60;;;;;12.55;48.11;98422.69;4992491;28;9004;-79
2022/01/05 02:11:32;;;;;;;;;6.20;5.20;;;;;12.53;48.17;98416.63;4991844;28;8863;-78
2022/01/05 02:14:01;;;;;;;;;9.80;9.00;;;;;12.27;48.57;98419.94;4991945;28;8851;-78
2022/01/05 02:16:32;;;;;;;;;8.80;8.20;;;;;12.30;48.25;98409.38;4992141;28;8945;-77
2022/01/05 02:19:01;;;;;;;;;9.00;7.20;;;;;12.31;48.63;98411.13;4992026;28;8902;-79
2022/01/05 02:21:34;;;;;;;;;9.60;8.20;;;;;12.33;48.54;98403.25;5008045;28;8904;-77
2022/01/05 02:24:05;;;;;;;;;3.20;3.20;;;;;12.24;48.94;98405.19;4992750;28;8898;-79
2022/01/05 02:26:36;;;;;;;;;10.20;9.60;;;;;12.36;48.69;98403.13;4991786;28;8867;-76
2022/01/05 02:29:05;;;;;;;;;6.20;6.00;;;;;12.41;48.59;98401.28;4994115;28;9582;-78
2022/01/05 02:31:34;;;;;;;;;4.80;2.00;;;;;12.35;48.71;98397.06;4996781;28;8856;-77
2022/01/05 02:34:03;;;;;;;;;12.60;10.00;;;;;12.34;49.19;98400.56;5036697;28;8855;-77
2022/01/05 02:36:33;;;;;;;;;7.80;7.80;;;;;12.41;48.57;98407.34;5033469;28;8982;-76
2022/01/05 02:39:02;;;;;;;;;8.00;8.00;;;;;12.51;47.90;98404.50;5037127;28;8847;-77
2022/01/05 02:41:31;;;;;;;;;8.00;7.60;;;;;12.56;48.44;98398.25;5054098;28;8867;-77
2022/01/05 02:44:00;;;;;;;;;5.00;5.00;;;;;12.50;48.32;98402.78;5032005;28;9041;-77
2022/01/05 02:46:29;;;;;;;;;8.80;7.60;;;;;12.56;48.04;98386.94;5034872;28;9687;-78
2022/01/05 02:48:58;;;;;;;;;9.40;7.40;;;;;12.43;48.69;98381.16;5054181;28;8913;-78
2022/01/05 02:51:27;;;;;;;;;7.00;7.00;;;;;12.25;49.01;98372.06;5029889;28;9092;-76
2022/01/05 02:53:57;;;;;;;;;9.40;7.60;;;;;12.28;48.91;98380.66;5046250;28;8933;-79
2022/01/05 02:56:26;;;;;;;;;8.00;8.00;;;;;12.30;49.14;98378.03;4983971;28;8969;-78
2022/01/05 02:58:54;;;;;;;;;9.00;8.00;;;;;12.25;48.47;98379.91;5018555;28;8844;-77
2022/01/05 03:01:23;;;;;;;;;8.20;7.20;;;;;12.20;49.53;98377.41;5055299;28;8820;-77
2022/01/05 03:03:52;;;;;;;;;7.60;6.80;;;;;12.19;49.26;98374.81;5071418;28;8828;-76
2022/01/05 03:06:22;;;;;;;;;4.20;4.20;;;;;12.09;49.94;98379.44;5037829;28;8871;-75
2022/01/05 03:08:51;;;;;;;;;11.20;10.60;;;;;12.15;49.50;98375.81;5055338;28;8995;-77
2022/01/05 03:11:21;;;;;;;;;11.40;8.60;;;;;12.17;49.74;98376.63;5069683;28;8844;-79
2022/01/05 03:13:50;;;;;;;;;8.00;7.40;;;;;12.26;49.53;98374.63;5056016;28;8878;-76
2022/01/05 03:16:19;;;;;;;;;9.20;8.60;;;;;12.35;48.91;98372.69;5022990;28;8832;-77
2022/01/05 03:18:48;;;;;;;;;7.40;5.00;;;;;12.44;48.77;98377.66;5040287;28;8848;-76
2022/01/05 03:21:16;;;;;;;;;7.00;7.00;;;;;12.37;48.70;98363.88;5074668;28;8880;-77
2022/01/05 03:23:46;;;;;;;;;7.40;7.00;;;;;12.42;48.27;98363.75;5038430;28;8875;-76
2022/01/05 03:26:15;;;;;;;;;8.60;7.80;;;;;12.52;48.98;98356.53;5072942;28;8993;-77
2022/01/05 03:28:45;;;;;;;;;6.20;6.20;;;;;12.58;48.72;98358.97;5058515;28;9581;-78
2022/01/05 03:31:14;;;;;;;;;7.80;7.20;;;;;12.59;48.89;98358.06;5077061;28;8880;-77
2022/01/05 03:33:42;;;;;;;;;8.00;8.00;;;;;12.64;48.80;98350.94;5059329;28;8902;-80
2022/01/05 03:36:11;;;;;;;;;7.40;6.80;;;;;12.55;49.24;98348.59;5079000;28;8864;-77
2022/01/05 03:38:40;;;;;;;;;7.60;6.00;;;;;12.45;49.21;98351.47;5024839;28;8856;-76
2022/01/05 03:41:08;;;;;;;;;8.60;8.40;;;;;12.45;48.66;98345.38;5038596;28;8844;-79
2022/01/05 03:43:37;;;;;;;;;2.80;2.80;;;;;12.32;49.38;98344.84;5054932;28;9001;-76
2022/01/05 03:46:07;;;;;;;;;8.00;8.00;;;;;12.35;49.02;98343.94;5072872;28;8860;-77
2022/01/05 03:48:36;;;;;;;;;8.60;7.40;;;;;12.33;49.33;98354.41;5054759;28;8899;-77
2022/01/05 03:51:05;;;;;;;;;7.00;7.00;;;;;12.33;49.78;98346.59;5037264;28;8894;-81
2022/01/05 03:53:33;;;;;;;;;10.00;7.80;;;;;12.23;50.15;98353.81;5054496;28;8844;-78
2022/01/05 03:56:03;;;;;;;;;4.40;3.80;;;;;12.32;49.54;98357.06;5054406;28;8832;-76
2022/01/05 03:58:31;;;;;;;;;8.20;8.20;;;;;12.29;49.84;98339.72;5054515;28;8886;-77
2022/01/05 04:01:00;;;;;;;;;6.60;5.40;;;;;12.34;49.93;98332.59;5070931;28;8856;-78
2022/01/05 04:03:31;;;;;;;;;6.20;6.20;;;;;12.42;49.59;98332.38;5071078;28;8940;-78
2022/01/05 04:05:59;;;;;;;;;9.40;8.00;;;;;12.33;49.86;98320.44;5020045;28;8859;-77
2022/01/05 04:08:28;;;;;;;;;8.20;8.20;;;;;12.33;50.05;98325.66;5070651;28;8840;-79
2022/01/05 04:10:57;;;;;;;;;7.40;5.00;;;;;12.36;49.58;98330.81;5054055;28;8848;-77
2022/01/05 04:13:25;;;;;;;;;7.80;7.80;;;;;12.41;50.26;98328.06;5052779;28;8986;-76
2022/01/05 04:15:54;;;;;;;;;4.80;4.60;;;;;12.46;50.00;98320.97;5020393;28;8957;-75
2022/01/05 04:18:22;;;;;;;;;7.00;4.40;;;;;12.57;49.97;98325.88;5069241;28;8848;-78
2022/01/05 04:20:52;;;;;;;;;8.00;7.00;;;;;12.53;49.70;98322.47;5036187;28;8848;-80
2022/01/05 04:23:21;;;;;;;;;10.60;9.40;;;;;12.42;49.90;98325.41;5036262;28;8881;-77
2022/01/05 04:25:50;;;;;;;;;8.80;8.20;;;;;12.31;50.12;98321.41;5068853;28;8854;-78
2022/01/05 04:28:18;;;;;;;;;9.80;8.40;;;;;12.26;50.31;98324.13;5035566;28;8836;-79
2022/01/05 04:30:47;;;;;;;;;11.00;9.80;;;;;12.32;50.00;98329.16;5052486;28;8864;-79
2022/01/05 04:33:16;;;;;;;;;8.00;8.00;;;;;12.33;50.29;98319.59;5069275;28;8860;-77
2022/01/05 04:36:06;;;;;;;;;9.40;8.80;;;;;12.36;50.00;98322.97;5052430;28;8902;-76
2022/01/05 04:38:35;;;;;;;;;9.60;8.80;;;;;12.38;50.31;98320.28;5069089;28;8878;-78
2022/01/05 04:41:04;;;;;;;;;11.60;8.80;;;;;12.38;50.57;98320.28;5009317;28;8854;-79
2022/01/05 04:43:32;;;;;;;;;6.20;5.80;;;;;12.26;50.26;98329.34;5009321;28;8839;-78
2022/01/05 04:46:01;;;;;;;;;8.20;8.00;;;;;12.30;50.22;98333.59;5009049;28;9019;-77
2022/01/05 04:48:30;;;;;;;;;7.40;7.40;;;;;12.33;50.23;98330.91;5008985;28;8874;-76
2022/01/05 04:50:58;;;;;;;;;9.60;8.40;;;;;12.44;50.37;98339.31;4993004;28;8850;-77
2022/01/05 04:53:29;;;;;;;;;6.80;6.80;;;;;12.37;50.60;98342.97;4969810;28;8857;-78
2022/01/05 04:55:57;;;;;;;;;7.60;7.00;;;;;12.45;50.24;98340.16;4969597;28;8868;-79
2022/01/05 04:58:28;;;;;;;;;8.00;5.80;;;;;12.46;50.17;98341.88;4969727;28;8891;-77
2022/01/05 05:00:57;;;;;;;;;9.00;5.00;;;;;12.32;50.29;98336.16;4969742;28;8966;-82
2022/01/05 05:03:25;;;;;;;;;7.20;6.60;;;;;12.40;50.32;98342.91;4937748;28;8877;-77
2022/01/05 05:05:54;;;;;;;;;7.20;7.20;;;;;12.47;49.44;98336.59;4953460;28;9476;-79
2022/01/05 05:08:23;;;;;;;;;8.80;8.80;;;;;12.59;49.69;98342.38;4937334;28;8872;-77
2022/01/05 05:10:53;;;;;;;;;11.00;8.00;;;;;12.47;49.75;98328.75;4969284;28;9016;-77
2022/01/05 05:13:22;;;;;;;;;8.40;8.00;;;;;12.47;49.66;98326.13;4953659;28;8848;-77
2022/01/05 05:15:50;;;;;;;;;7.00;6.20;;;;;12.47;49.39;98336.59;4953414;28;8939;-80
2022/01/05 05:18:18;;;;;;;;;9.20;8.20;;;;;12.46;49.69;98334.03;4988362;28;8860;-77
2022/01/05 05:20:47;;;;;;;;;8.80;8.80;;;;;12.54;49.86;98329.44;4991929;28;8905;-80
2022/01/05 05:23:17;;;;;;;;;8.60;8.60;;;;;12.46;50.26;98336.66;4976495;28;8947;-78
2022/01/05 05:25:46;;;;;;;;;21.60;21.60;;;;;12.43;50.77;98331.50;5029426;28;8858;-77
2022/01/05 05:28:16;;;;;;;;;9.40;8.00;;;;;12.43;50.25;98324.50;5014634;28;8966;-78
2022/01/05 05:30:45;;;;;;;;;10.20;10.20;;;;;12.48;50.19;98334.84;5014354;28;9045;-77
2022/01/05 05:33:14;;;;;;;;;15.20;14.20;;;;;12.40;50.33;98337.69;5031233;28;8846;-76
2022/01/05 05:35:43;;;;;;;;;10.80;9.20;;;;;12.50;50.25;98332.19;5014597;28;8969;-78
2022/01/05 05:38:12;;;;;;;;;8.00;5.60;;;;;12.46;50.21;98329.66;5029819;28;8865;-75
2022/01/05 05:40:42;;;;;;;;;9.60;8.20;;;;;12.50;50.79;98326.97;4972798;28;8866;-79
2022/01/05 05:43:11;;;;;;;;;10.00;10.00;;;;;12.54;50.36;98329.44;4988641;28;8866;-78
2022/01/05 05:45:41;;;;;;;;;8.20;6.80;;;;;12.56;50.20;98332.88;4949790;28;8862;-77
2022/01/05 05:48:10;;;;;;;;;10.00;9.40;;;;;12.53;50.37;98334.72;4950047;28;8858;-77
2022/01/05 05:50:39;;;;;;;;;7.80;7.80;;;;;12.54;50.05;98323.38;4934230;28;8831;-76
2022/01/05 05:53:07;;;;;;;;;8.40;8.40;;;;;12.55;50.33;98325.94;4968265;28;8876;-77
2022/01/05 05:55:39;;;;;;;;;9.20;8.20;;;;;12.66;49.85;98329.09;4952710;28;8918;-78
2022/01/05 05:58:08;;;;;;;;;9.80;9.20;;;;;12.60;49.87;98324.03;4936698;28;8839;-77
2022/01/05 06:00:37;;;;;;;;;10.80;10.40;;;;;12.50;50.88;98321.75;4936677;28;8858;-76
2022/01/05 06:03:07;;;;;;;;;11.20;10.60;;;;;12.50;50.59;98329.59;4936420;28;9016;-76
2022/01/05 06:05:36;;;;;;;;;8.60;8.40;;;;;12.59;50.70;98326.69;4952142;28;8894;-81
2022/01/05 06:08:05;;;;;;;;;11.20;9.20;;;;;12.46;51.04;98313.13;4936641;28;8873;-80
2022/01/05 06:10:34;;;;;;;;;10.00;8.00;;;;;12.46;50.80;98324.44;4936443;28;8881;-78
2022/01/05 06:13:03;;;;;;;;;10.40;9.80;;;;;12.50;50.89;98319.13;5009217;28;8861;-80
2022/01/05 06:15:35;;;;;;;;;13.80;12.60;;;;;12.50;50.63;98326.97;4994461;28;8856;-78
2022/01/05 06:18:04;;;;;;;;;11.20;8.60;;;;;12.54;51.19;98320.75;5051015;28;8867;-79
2022/01/05 06:20:33;;;;;;;;;13.40;9.20;;;;;12.56;51.08;98321.56;5051358;28;8844;-77
2022/01/05 06:23:02;;;;;;;;;11.40;9.80;;;;;12.58;50.90;98327.59;5034719;28;8864;-79
2022/01/05 06:25:31;;;;;;;;;11.80;9.20;;;;;12.58;50.39;98328.44;5051291;28;8867;-77
2022/01/05 06:28:00;;;;;;;;;10.40;10.00;;;;;12.55;50.58;98319.84;5051687;28;9018;-78
2022/01/05 06:30:28;;;;;;;;;7.40;7.40;;;;;12.59;50.77;98318.84;5067558;28;8964;-77
2022/01/05 06:32:57;;;;;;;;;8.20;8.00;;;;;12.57;50.62;98316.28;5034726;28;8851;-76
2022/01/05 06:35:26;;;;;;;;;9.40;8.40;;;;;12.59;51.02;98316.22;5000861;28;8882;-77
2022/01/05 06:37:55;;;;;;;;;8.60;8.40;;;;;12.66;50.88;98321.25;5034567;28;8859;-77
2022/01/05 06:40:25;;;;;;;;;11.40;9.80;;;;;12.65;50.86;98329.16;5013251;28;8968;-80
2022/01/05 06:42:53;;;;;;;;;13.60;10.00;;;;;12.73;50.79;98324.53;5029945;28;9011;-77
2022/01/05 06:45:22;;;;;;;;;13.60;11.80;;;;;12.84;50.72;98325.09;5006721;28;8882;-78
2022/01/05 06:47:50;;;;;;;;;12.40;11.60;;;;;12.77;50.50;98315.69;4958811;28;9517;-78
2022/01/05 06:50:19;;;;;;;;;15.60;14.60;;;;;12.81;49.99;98322.53;4973927;28;8881;-79
2022/01/05 06:52:49;;;;;;;;;11.00;11.00;;;;;12.87;50.16;98314.53;4990337;28;8863;-78
2022/01/05 06:55:19;;;;;;;;;13.40;12.40;;;;;12.93;50.05;98312.63;4990425;28;8838;-77
2022/01/05 06:57:48;;;;;;;;;14.00;11.20;;;;;13.02;49.94;98309.72;5006561;28;9010;-77
2022/01/05 07:00:16;;;;;;;;;12.60;11.20;;;;;13.12;49.46;98310.31;4990366;28;8878;-79
2022/01/05 07:02:45;;;;;;;;;11.20;10.00;;;;;13.02;49.11;98299.25;4990415;28;8858;-80
2022/01/05 07:05:14;;;;;;;;;13.00;10.00;;;;;13.11;49.78;98312.06;4973763;28;8862;-79
2022/01/05 07:07:43;;;;;;;;;8.80;8.80;;;;;13.16;48.83;98291.84;4974238;28;8864;-79
2022/01/05 07:10:12;;;;;;;;;10.60;10.40;;;;;13.32;49.07;98299.25;4958072;28;8850;-77
2022/01/05 07:12:48;;;;;;;;;13.60;11.20;;;;;13.29;48.81;98297.56;4993008;28;8875;-78
2022/01/05 07:15:17;;;;;;;;;8.40;7.60;;;;;13.37;49.16;98292.97;5009549;28;8951;-77
2022/01/05 07:17:46;;;;;;;;;10.00;10.00;;;;;13.39;48.98;98304.25;5050260;28;8872;-79
2022/01/05 07:20:16;;;;;;;;;8.00;5.60;;;;;13.44;49.04;98304.13;5042737;28;8828;-80
2022/01/05 07:22:45;;;;;;;;;8.00;7.60;;;;;13.44;48.90;98296.25;5025921;28;8856;-77
2022/01/05 07:25:14;;;;;;;;;17.00;12.20;;;;;13.48;49.26;98297.88;5026119;28;8871;-76
2022/01/05 07:27:43;;;;;;;;;9.60;5.40;;;;;13.57;48.99;98292.34;4993561;28;8856;-80
2022/01/05 07:30:14;;;;;;;;;10.80;9.80;;;;;13.54;48.83;98291.56;4993384;28;8991;-79
2022/01/05 07:32:43;;;;;;;;;9.40;8.00;;;;;13.74;48.71;98293.50;5009723;28;8887;-79
2022/01/05 07:35:12;;;;;;;;;11.80;10.20;;;;;13.83;47.88;98285.34;5009860;28;8836;-77
2022/01/05 07:37:41;;;;;;;;;11.20;10.00;;;;;13.93;48.13;98292.00;5042218;28;10047;-79
2022/01/05 07:40:10;;;;;;;;;10.80;10.80;;;;;14.04;47.45;98284.63;4993125;28;8951;-77
2022/01/05 07:42:39;;;;;;;;;10.80;9.80;;;;;14.15;48.17;98288.63;5009367;28;8849;-78
2022/01/05 07:45:10;;;;;;;;;12.20;10.00;;;;;14.17;47.58;98292.03;5009751;28;8887;-78
2022/01/05 07:47:40;;;;;;;;;10.80;9.00;;;;;14.30;46.98;98280.19;5002563;28;8886;-80
2022/01/05 07:50:14;;;;;;;;;11.00;10.40;;;;;14.49;46.53;98280.38;4986805;28;8852;-78
2022/01/05 07:52:44;;;;;;;;;7.60;7.60;;;;;14.56;46.72;98267.91;5009242;28;8898;-80
2022/01/05 07:55:14;;;;;;;;;10.60;8.20;;;;;14.65;46.33;98267.59;5025532;28;8841;-77
2022/01/05 07:57:42;;;;;;;;;9.80;8.40;;;;;14.77;46.27;98267.13;4992691;28;8866;-80
2022/01/05 08:00:12;;;;;;;;;7.00;7.00;;;;;14.91;46.06;98273.59;4993037;28;8860;-77
2022/01/05 08:02:42;;;;;;;;;9.20;5.80;;;;;14.89;46.03;98262.31;4995489;28;8856;-83
2022/01/05 08:05:11;;;;;;;;;9.00;9.00;;;;;14.94;45.78;98269.09;5013134;28;8894;-80
2022/01/05 08:07:40;;;;;;;;;10.60;8.60;;;;;15.07;45.45;98264.22;4995941;28;8856;-77
2022/01/05 08:10:09;;;;;;;;;6.20;4.20;;;;;15.18;45.31;98267.28;5029129;28;8836;-77
2022/01/05 08:12:40;;;;;;;;;7.60;6.00;;;;;15.31;45.08;98270.28;5012637;28;8938;-77
2022/01/05 08:15:10;;;;;;;;;9.80;7.40;;;;;15.40;45.06;98266.41;5012480;28;9017;-79
2022/01/05 08:17:44;;;;;;;;;10.20;8.60;;;;;15.55;44.95;98264.91;5012076;28;8872;-79
2022/01/05 08:20:19;;;;;;;;;7.60;7.00;;;;;15.70;44.93;98263.44;5013008;28;8848;-76
2022/01/05 08:22:48;;;;;;;;;11.20;11.20;;;;;15.72;44.63;98270.31;5012434;28;8848;-79
2022/01/05 08:25:20;;;;;;;;;8.40;7.20;;;;;15.86;44.38;98261.03;4996029;28;8898;-77
2022/01/05 08:27:49;;;;;;;;;23.80;19.80;;;;;15.91;44.41;98257.28;5012406;28;8868;-79
2022/01/05 08:30:22;;;;;;;;;15.80;14.20;;;;;16.07;43.64;98256.66;4996292;28;8864;-78
2022/01/05 08:32:54;;;;;;;;;8.00;8.00;;;;;16.03;43.96;98250.66;4972860;28;8947;-79
2022/01/05 08:35:24;;;;;;;;;14.80;13.00;;;;;16.04;43.78;98254.97;4957379;28;9030;-79
2022/01/05 08:37:53;;;;;;;;;15.20;13.40;;;;;16.22;43.48;98245.44;4973110;28;8832;-75
2022/01/05 08:40:23;;;;;;;;;15.20;12.60;;;;;16.28;43.09;98253.06;4950247;28;8924;-79
2022/01/05 08:42:53;;;;;;;;;18.40;16.20;;;;;16.22;43.81;98249.81;4934607;28;8896;-80
2022/01/05 08:45:24;;;;;;;;;16.00;13.40;;;;;16.30;43.29;98253.00;4935904;28;8843;-78
2022/01/05 08:47:55;;;;;;;;;8.40;8.00;;;;;16.30;43.50;98250.38;4947245;28;9627;-77
2022/01/05 08:50:27;;;;;;;;;10.40;8.80;;;;;16.53;43.60;98250.16;4972591;28;8873;-80
2022/01/05 08:52:57;;;;;;;;;13.00;11.20;;;;;16.75;42.93;98244.78;4972650;28;8870;-80
2022/01/05 08:55:28;;;;;;;;;12.20;11.00;;;;;16.69;42.70;98249.44;4972662;28;8858;-77
2022/01/05 08:57:58;;;;;;;;;9.00;7.20;;;;;16.72;42.89;98242.25;4972442;28;8877;-78
2022/01/05 09:00:28;;;;;;;;;11.40;10.00;;;;;16.87;42.74;98240.72;4972590;28;8928;-77
2022/01/05 09:02:58;;;;;;;;;8.60;6.40;;;;;16.72;42.86;98237.00;4974405;28;8865;-77
2022/01/05 09:05:27;;;;;;;;;7.40;7.00;;;;;16.81;42.76;98238.38;5011458;28;8854;-79
2022/01/05 09:07:55;;;;;;;;;8.20;8.20;;;;;16.80;43.02;98241.06;5011440;28;8904;-79
2022/01/05 09:10:24;;;;;;;;;9.60;9.60;;;;;16.99;42.30;98235.81;4996045;28;8952;-78
2022/01/05 09:12:53;;;;;;;;;9.20;7.00;;;;;17.00;42.08;98235.75;5051476;28;8852;-76
2022/01/05 09:15:22;;;;;;;;;8.40;7.60;;;;;16.95;42.39;98233.31;5051648;28;8836;-75
2022/01/05 09:17:51;;;;;;;;;8.00;7.00;;;;;16.95;42.26;98229.84;5048039;28;8904;-79
2022/01/05 09:20:21;;;;;;;;;6.40;6.40;;;;;17.08;42.31;98209.88;5031008;28;9085;-80
2022/01/05 09:22:50;;;;;;;;;6.60;6.60;;;;;17.23;41.76;98215.34;5031375;28;8897;-78
2022/01/05 09:25:19;;;;;;;;;8.40;7.20;;;;;17.34;41.46;98216.50;5014389;28;8838;-77
2022/01/05 09:27:48;;;;;;;;;8.60;7.60;;;;;17.41;41.37;98217.06;5014229;28;8854;-78
2022/01/05 09:30:17;;;;;;;;;9.00;9.00;;;;;17.54;41.32;98217.28;5030839;28;8857;-76
2022/01/05 09:32:47;;;;;;;;;9.60;8.60;;;;;17.61;41.15;98225.75;5014127;28;8951;-79
2022/01/05 09:35:19;;;;;;;;;7.40;7.20;;;;;17.70;41.22;98218.22;5030256;28;8892;-76
2022/01/05 09:37:54;;;;;;;;;5.20;5.20;;;;;17.78;40.56;98203.81;5030266;28;8822;-78
2022/01/05 09:43:10;;;;;;;;;7.00;6.00;;;;;17.76;40.46;98190.69;5030293;28;8834;-80
2022/01/05 09:45:52;;;;;;;;;7.40;7.40;;;;;17.94;40.56;98196.84;4982132;28;8842;-79
2022/01/05 09:48:48;;;;;;;;;6.60;5.60;;;;;18.12;40.27;98189.72;5035875;28;9570;-79
2022/01/05 09:51:20;;;;;;;;;5.80;5.80;;;;;18.16;39.75;98187.78;5051677;28;8883;-80
2022/01/05 09:53:52;;;;;;;;;7.40;7.40;;;;;18.32;39.30;98193.94;5069100;28;8909;-79
2022/01/05 09:56:41;;;;;;;;;6.80;6.00;;;;;18.10;39.15;98192.44;5007852;28;8844;-79
2022/01/05 09:59:09;;;;;;;;;6.20;6.20;;;;;18.24;39.12;98193.50;5064946;28;8865;-77
2022/01/05 10:01:38;;;;;;;;;4.80;4.00;;;;;18.36;38.76;98186.72;5049591;28;8902;-78
2022/01/05 10:04:07;;;;;;;;;8.80;7.40;;;;;18.45;39.04;98183.56;5047718;28;8872;-76
2022/01/05 10:06:37;;;;;;;;;12.20;11.20;;;;;18.55;38.96;98178.66;5048158;28;8869;-77
2022/01/05 10:09:08;;;;;;;;;10.40;9.80;;;;;18.51;39.02;98177.97;5064014;28;8869;-78
2022/01/05 10:11:37;;;;;;;;;10.00;8.60;;;;;18.55;38.53;98178.66;5048829;28;8867;-80
2022/01/05 10:14:06;;;;;;;;;8.00;8.00;;;;;18.62;38.42;98174.69;5047679;28;8991;-77
2022/01/05 10:16:35;;;;;;;;;12.00;10.60;;;;;18.45;38.71;98179.16;5047755;28;8966;-77
2022/01/05 10:19:05;;;;;;;;;11.20;9.80;;;;;18.60;38.58;98181.84;5064225;28;8841;-79
2022/01/05 10:21:36;;;;;;;;;9.60;9.60;;;;;18.60;38.88;98179.22;5047685;28;9571;-79
2022/01/05 10:24:05;;;;;;;;;11.20;10.20;;;;;18.36;38.94;98182.28;5046542;28;8849;-80
2022/01/05 10:26:36;;;;;;;;;12.20;11.20;;;;;18.34;39.04;98178.88;4965312;28;8889;-79
2022/01/05 10:29:08;;;;;;;;;11.60;10.40;;;;;18.38;38.98;98174.28;5047251;28;9666;-79
2022/01/05 10:31:39;;;;;;;;;19.60;18.60;;;;;18.29;39.17;98173.00;5047483;28;8877;-79
2022/01/05 10:34:16;;;;;;;;;11.60;11.60;;;;;18.42;39.22;98167.91;5030232;28;8877;-76
2022/01/05 10:36:47;;;;;;;;;16.40;15.80;;;;;18.56;39.71;98167.97;5013504;28;8853;-77
2022/01/05 10:39:20;;;;;;;;;19.00;17.60;;;;;18.69;39.51;98171.66;5030008;28;9666;-79
2022/01/05 10:41:50;;;;;;;;;15.40;15.40;;;;;18.75;39.55;98165.19;5048143;28;8936;-77
2022/01/05 10:44:21;;;;;;;;;15.60;15.60;;;;;18.82;39.77;98161.28;5063948;28;8975;-79
2022/01/05 10:46:52;;;;;;;;;14.60;13.60;;;;;18.90;39.42;98163.47;5048086;28;8865;-79
2022/01/05 10:49:27;;;;;;;;;15.00;13.60;;;;;19.01;39.36;98161.06;5030593;28;8841;-78
2022/01/05 10:51:56;;;;;;;;;13.80;13.60;;;;;18.99;39.00;98164.75;5047099;28;8977;-80
2022/01/05 10:54:27;;;;;;;;;18.80;17.40;;;;;19.06;38.76;98166.13;5063135;28;8869;-77
2022/01/05 10:57:08;;;;;;;;;19.00;16.60;;;;;19.12;38.69;98167.56;5049793;28;8857;-78
2022/01/05 10:59:39;;;;;;;;;14.20;14.20;;;;;19.17;38.83;98162.84;5050475;28;8907;-78
2022/01/05 11:02:26;;;;;;;;;15.80;13.00;;;;;19.05;38.90;98165.28;5050485;28;8844;-77
2022/01/05 11:04:58;;;;;;;;;13.80;13.80;;;;;18.92;38.89;98158.97;5066559;28;9634;-80
2022/01/05 11:07:31;;;;;;;;;12.20;12.20;;;;;19.01;38.75;98152.31;5050243;28;8859;-77
2022/01/05 11:10:05;;;;;;;;;12.60;10.80;;;;;19.14;39.14;98155.09;5050908;28;8859;-79
2022/01/05 11:12:37;;;;;;;;;14.40;14.40;;;;;19.28;38.91;98160.41;5052947;28;8840;-77
2022/01/05 11:15:24;;;;;;;;;11.80;11.60;;;;;19.32;38.13;98154.03;5068793;28;8880;-79
2022/01/05 11:18:15;;;;;;;;;12.60;10.40;;;;;19.31;38.39;98154.97;5068959;28;8848;-79
2022/01/05 11:20:49;;;;;;;;;11.40;11.40;;;;;19.33;38.02;98150.44;5003673;28;8940;-79
2022/01/05 11:23:19;;;;;;;;;14.60;13.40;;;;;19.22;38.36;98144.94;5029093;28;8992;-78
2022/01/05 11:25:49;;;;;;;;;14.80;14.20;;;;;19.12;38.84;98141.97;5028945;28;8862;-80
2022/01/05 11:28:21;;;;;;;;;16.60;16.20;;;;;19.30;38.67;98142.72;5028669;28;8838;-77
2022/01/05 11:30:52;;;;;;;;;11.80;10.60;;;;;19.27;38.09;98143.72;5012544;28;9025;-78
2022/01/05 11:33:21;;;;;;;;;15.20;14.20;;;;;19.32;38.21;98142.59;5028843;28;8943;-79
2022/01/05 11:35:51;;;;;;;;;16.80;14.60;;;;;19.39;38.27;98142.13;5013789;28;8866;-76
2022/01/05 11:38:20;;;;;;;;;18.20;15.20;;;;;19.49;37.99;98145.09;5032300;28;9719;-78
2022/01/05 11:40:54;;;;;;;;;18.00;18.00;;;;;19.56;37.87;98140.28;5032326;28;8846;-81
2022/01/05 11:43:28;;;;;;;;;13.80;13.20;;;;;19.63;37.98;98141.63;5032407;28;8877;-78
2022/01/05 11:45:57;;;;;;;;;18.00;17.20;;;;;19.45;38.33;98133.88;5032434;28;8862;-77
2022/01/05 11:48:28;;;;;;;;;20.80;17.00;;;;;19.51;38.37;98131.78;5032475;28;8916;-77
2022/01/05 11:50:59;;;;;;;;;18.00;14.60;;;;;19.58;38.25;98133.13;5032414;28;8854;-79